createdAt,value
2018-12-12T00:02:07.000Z,97491.66
2018-12-12T00:04:35.282Z,97488.59
2018-12-12T00:07:03.673Z,97485.34
2018-12-12T00:09:31.956Z,97495.91
2018-12-12T00:12:00.253Z,97482.97
2018-12-12T00:14:28.529Z,97480.94
2018-12-12T00:16:56.830Z,97481.20
2018-12-12T00:19:25.337Z,97478.72
2018-12-12T00:21:54.183Z,97480.03
2018-12-12T00:24:22.457Z,97474.91
2018-12-12T00:26:50.729Z,97471.41
2018-12-12T00:29:19.009Z,97475.48
2018-12-12T00:31:47.317Z,97478.56
2018-12-12T00:34:15.714Z,97477.13
2018-12-12T00:36:44.005Z,97480.34
2018-12-12T00:39:12.679Z,97482.31
2018-12-12T00:41:41.185Z,97481.99
2018-12-12T00:44:10.161Z,97479.30
2018-12-12T00:46:38.649Z,97477.56
2018-12-12T00:49:07.064Z,97483.13
2018-12-12T00:51:35.765Z,97476.16
2018-12-12T00:54:04.193Z,97477.05
2018-12-12T00:56:32.589Z,97482.02
2018-12-12T00:59:01.441Z,97480.25
2018-12-12T01:01:30.062Z,97470.35
2018-12-12T01:03:58.461Z,97474.34
2018-12-12T01:06:26.773Z,97477.75
2018-12-12T01:08:55.057Z,97471.48
2018-12-12T01:11:29.338Z,97473.39
2018-12-12T01:13:58.040Z,97472.78
2018-12-12T01:16:26.353Z,97466.84
2018-12-12T01:18:55.160Z,97468.55
2018-12-12T01:21:23.577Z,97464.45
2018-12-12T01:23:51.870Z,97469.91
2018-12-12T01:26:20.489Z,97470.17
2018-12-12T01:28:48.793Z,97473.45
2018-12-12T01:31:17.345Z,97480.80
2018-12-12T01:33:45.965Z,97481.75
2018-12-12T01:36:14.249Z,97481.52
2018-12-12T01:38:42.571Z,97478.06
2018-12-12T01:41:11.385Z,97483.38
2018-12-12T01:43:39.685Z,97483.51
2018-12-12T01:46:07.943Z,97490.44
2018-12-12T01:48:36.254Z,97490.12
2018-12-12T01:51:04.549Z,97489.36
2018-12-12T01:53:33.216Z,97492.09
2018-12-12T01:56:01.769Z,97493.73
2018-12-12T01:58:30.249Z,97494.14
2018-12-12T02:00:58.733Z,97485.74
2018-12-12T02:03:27.326Z,97485.78
2018-12-12T02:05:55.666Z,97484.33
2018-12-12T02:08:24.317Z,97480.15
2018-12-12T02:10:53.253Z,97483.89
2018-12-12T02:13:36.155Z,97488.15
2018-12-12T02:16:07.487Z,97488.00
2018-12-12T02:18:38.750Z,97489.32
2018-12-12T02:21:07.085Z,97487.53
2018-12-12T02:23:36.602Z,97491.34
2018-12-12T02:26:05.074Z,97494.55
2018-12-12T02:28:34.098Z,97502.92
2018-12-12T02:31:02.564Z,97506.72
2018-12-12T02:33:30.998Z,97505.98
2018-12-12T02:35:59.518Z,97510.63
2018-12-12T02:38:27.866Z,97506.75
2018-12-12T02:40:56.173Z,97508.56
2018-12-12T02:43:24.545Z,97505.72
2018-12-12T02:45:52.895Z,97500.42
2018-12-12T02:48:21.263Z,97499.66
2018-12-12T02:50:49.585Z,97496.34
2018-12-12T02:53:18.363Z,97496.29
2018-12-12T02:55:46.873Z,97489.53
2018-12-12T02:58:15.209Z,97483.80
2018-12-12T03:00:43.546Z,97482.89
2018-12-12T03:03:12.287Z,97486.83
2018-12-12T03:05:40.650Z,97484.19
2018-12-12T03:08:08.994Z,97480.54
2018-12-12T03:10:37.453Z,97483.62
2018-12-12T03:13:05.786Z,97476.10
2018-12-12T03:15:34.142Z,97475.52
2018-12-12T03:18:02.462Z,97482.06
2018-12-12T03:20:31.186Z,97480.19
2018-12-12T03:22:59.501Z,97483.25
2018-12-12T03:25:27.831Z,97488.20
2018-12-12T03:27:56.128Z,97487.03
2018-12-12T03:30:24.450Z,97489.53
2018-12-12T03:32:52.783Z,97495.26
2018-12-12T03:35:21.221Z,97487.41
2018-12-12T03:37:50.005Z,97491.06
2018-12-12T03:40:19.149Z,97493.94
2018-12-12T03:42:48.074Z,97495.34
2018-12-12T03:45:16.417Z,97493.44
2018-12-12T03:47:44.721Z,97494.73
2018-12-12T03:50:13.062Z,97498.25
2018-12-12T03:52:41.374Z,97490.53
2018-12-12T03:55:09.907Z,97489.73
2018-12-12T03:57:38.352Z,97492.11
2018-12-12T04:00:08.536Z,97489.88
2018-12-12T04:02:36.861Z,97487.09
2018-12-12T04:05:06.348Z,97489.91
2018-12-12T04:07:35.084Z,97477.90
2018-12-12T04:10:03.694Z,97476.25
2018-12-12T04:12:32.325Z,97478.87
2018-12-12T04:15:00.647Z,97479.48
2018-12-12T04:17:28.968Z,97477.81
2018-12-12T04:19:57.803Z,97475.78
2018-12-12T04:22:26.833Z,97483.19
2018-12-12T04:24:55.264Z,97478.48
2018-12-12T04:27:23.586Z,97484.25
2018-12-12T04:29:51.958Z,97477.58
2018-12-12T04:32:20.710Z,97485.35
2018-12-12T04:34:49.030Z,97480.98
2018-12-12T04:37:17.472Z,97472.26
2018-12-12T04:39:46.124Z,97465.20
2018-12-12T04:42:14.433Z,97475.40
2018-12-12T04:44:42.741Z,97472.94
2018-12-12T04:47:11.085Z,97475.31
2018-12-12T04:49:39.410Z,97474.66
2018-12-12T04:52:08.049Z,97470.97
2018-12-12T04:54:36.509Z,97470.37
2018-12-12T04:57:05.198Z,97469.70
2018-12-12T04:59:33.601Z,97476.78
2018-12-12T05:02:01.936Z,97472.81
2018-12-12T05:04:30.250Z,97471.05
2018-12-12T05:06:58.572Z,97468.64
2018-12-12T05:09:26.889Z,97474.45
2018-12-12T05:11:55.218Z,97476.38
2018-12-12T05:14:23.870Z,97474.25
2018-12-12T05:16:52.369Z,97478.84
2018-12-12T05:19:20.821Z,97475.23
2018-12-12T05:21:49.170Z,97477.52
2018-12-12T05:24:17.481Z,97473.34
2018-12-12T05:26:46.653Z,97476.25
2018-12-12T05:29:15.255Z,97475.20
2018-12-12T05:31:43.917Z,97476.90
2018-12-12T05:34:12.770Z,97474.99
2018-12-12T05:36:41.095Z,97480.19
2018-12-12T05:39:09.505Z,97483.89
2018-12-12T05:41:37.817Z,97494.14
2018-12-12T05:44:06.138Z,97493.76
2018-12-12T05:46:34.490Z,97490.18
2018-12-12T05:49:03.129Z,97495.97
2018-12-12T05:51:31.453Z,97486.83
2018-12-12T05:54:00.067Z,97488.86
2018-12-12T05:56:28.387Z,97488.03
2018-12-12T05:58:57.029Z,97489.36
2018-12-12T06:01:25.530Z,97487.80
2018-12-12T06:03:54.030Z,97489.06
2018-12-12T06:06:22.477Z,97492.77
2018-12-12T06:08:51.317Z,97494.20
2018-12-12T06:11:19.968Z,97488.84
2018-12-12T06:13:48.289Z,97492.07
2018-12-12T06:16:16.613Z,97491.89
2018-12-12T06:18:45.033Z,97490.92
2018-12-12T06:21:13.373Z,97494.33
2018-12-12T06:23:41.717Z,97499.62
2018-12-12T06:26:10.337Z,97493.41
2018-12-12T06:28:38.866Z,97499.05
2018-12-12T06:31:07.189Z,97499.62
2018-12-12T06:33:35.544Z,97500.62
2018-12-12T06:36:03.846Z,97490.50
2018-12-12T06:38:32.199Z,97493.72
2018-12-12T06:41:00.722Z,97507.30
2018-12-12T06:43:29.063Z,97504.91
2018-12-12T06:45:57.377Z,97501.98
2018-12-12T06:48:26.126Z,97503.22
2018-12-12T06:50:54.417Z,97510.06
2018-12-12T06:53:23.148Z,97503.98
2018-12-12T06:55:51.605Z,97508.56
2018-12-12T06:58:19.958Z,97508.24
2018-12-12T07:00:48.293Z,97505.25
2018-12-12T07:03:16.639Z,97518.97
2018-12-12T07:05:44.969Z,97512.68
2018-12-12T07:08:13.517Z,97515.17
2018-12-12T07:10:41.961Z,97512.80
2018-12-12T07:13:10.506Z,97517.59
2018-12-12T07:15:39.277Z,97520.23
2018-12-12T07:18:07.938Z,97516.15
2018-12-12T07:20:36.300Z,97515.77
2018-12-12T07:23:04.928Z,97519.73
2018-12-12T07:25:33.458Z,97520.49
2018-12-12T07:28:01.774Z,97517.03
2018-12-12T07:30:30.232Z,97523.23
2018-12-12T07:32:58.573Z,97528.10
2018-12-12T07:35:26.907Z,97524.95
2018-12-12T07:37:55.333Z,97523.92
2018-12-12T07:40:23.672Z,97524.95
2018-12-12T07:42:51.992Z,97526.27
2018-12-12T07:45:20.757Z,97528.43
2018-12-12T07:47:49.069Z,97531.08
2018-12-12T07:50:17.409Z,97528.62
2018-12-12T07:52:45.923Z,97531.16
2018-12-12T07:55:14.244Z,97530.78
2018-12-12T07:57:42.620Z,97536.26
2018-12-12T08:00:11.208Z,97532.66
2018-12-12T08:02:39.610Z,97534.75
2018-12-12T08:05:08.061Z,97535.77
2018-12-12T08:07:37.069Z,97540.23
2018-12-12T08:10:06.725Z,97539.84
2018-12-12T08:12:35.018Z,97540.81
2018-12-12T08:15:04.090Z,97539.49
2018-12-12T08:17:32.403Z,97539.49
2018-12-12T08:20:01.021Z,97543.01
2018-12-12T08:22:29.489Z,97538.80
2018-12-12T08:24:57.995Z,97542.41
2018-12-12T08:27:26.465Z,97543.02
2018-12-12T08:29:54.960Z,97543.66
2018-12-12T08:32:23.669Z,97542.91
2018-12-12T08:34:52.377Z,97544.16
2018-12-12T08:37:20.894Z,97543.76
2018-12-12T08:39:49.385Z,97545.29
2018-12-12T08:42:17.716Z,97542.69
2018-12-12T08:44:46.033Z,97544.94
2018-12-12T08:47:14.354Z,97538.11
2018-12-12T08:49:42.649Z,97544.49
2018-12-12T08:52:11.314Z,97547.09
2018-12-12T08:54:39.637Z,97544.59
2018-12-12T08:57:08.865Z,97544.41
2018-12-12T08:59:37.177Z,97546.77
2018-12-12T09:02:05.733Z,97546.32
2018-12-12T09:04:34.021Z,97549.50
2018-12-12T09:07:02.333Z,97553.16
2018-12-12T09:09:30.646Z,97554.03
2018-12-12T09:11:59.157Z,97551.04
2018-12-12T09:14:27.502Z,97550.94
2018-12-12T09:16:55.849Z,97555.75
2018-12-12T09:19:24.573Z,97548.44
2018-12-12T09:21:53.078Z,97548.85
2018-12-12T09:24:22.046Z,97558.05
2018-12-12T09:26:51.058Z,97564.09
2018-12-12T09:29:19.516Z,97560.23
2018-12-12T09:31:48.026Z,97562.41
2018-12-12T09:34:16.339Z,97562.03
2018-12-12T09:36:44.683Z,97566.56
2018-12-12T09:39:12.998Z,97566.88
2018-12-12T09:41:41.789Z,97565.33
2018-12-12T09:44:10.610Z,97558.91
2018-12-12T09:46:38.937Z,97559.91
2018-12-12T09:49:07.253Z,97555.09
2018-12-12T09:51:35.557Z,97550.91
2018-12-12T09:54:03.997Z,97539.88
2018-12-12T09:56:32.304Z,97529.53
2018-12-12T09:59:00.601Z,97534.37
2018-12-12T10:01:29.273Z,97538.42
2018-12-12T10:03:57.773Z,97536.72
2018-12-12T10:06:26.233Z,97538.91
2018-12-12T10:08:54.749Z,97539.31
2018-12-12T10:11:23.213Z,97542.34
2018-12-12T10:13:51.701Z,97550.76
2018-12-12T10:16:20.173Z,97559.37
2018-12-12T10:18:48.666Z,97559.84
2018-12-12T10:21:17.125Z,97574.43
2018-12-12T10:23:45.877Z,97576.73
2018-12-12T10:26:14.610Z,97573.58
2018-12-12T10:28:43.097Z,97569.28
2018-12-12T10:31:11.422Z,97566.02
2018-12-12T10:33:40.074Z,97566.78
2018-12-12T10:36:08.529Z,97566.02
2018-12-12T10:38:36.850Z,97566.05
2018-12-12T10:41:05.186Z,97559.63
2018-12-12T10:43:33.998Z,97551.25
2018-12-12T10:46:02.453Z,97554.09
2018-12-12T10:48:30.966Z,97553.80
2018-12-12T10:50:59.401Z,97548.26
2018-12-12T10:53:27.897Z,97542.94
2018-12-12T10:55:56.241Z,97549.38
2018-12-12T10:58:24.541Z,97543.75
2018-12-12T11:00:58.796Z,97537.19
2018-12-12T11:03:43.938Z,97542.70
2018-12-12T11:06:09.004Z,97540.73
2018-12-12T11:08:37.322Z,97536.33
2018-12-12T11:11:05.903Z,97528.67
2018-12-12T11:13:34.702Z,97531.59
2018-12-12T11:16:03.205Z,97525.89
2018-12-12T11:18:31.661Z,97524.58
2018-12-12T11:21:00.157Z,97518.87
2018-12-12T11:23:28.628Z,97522.41
2018-12-12T11:25:56.965Z,97520.30
2018-12-12T11:28:25.273Z,97518.97
2018-12-12T11:30:53.604Z,97514.22
2018-12-12T11:33:21.927Z,97514.59
2018-12-12T11:35:50.563Z,97517.55
2018-12-12T11:38:18.881Z,97512.70
2018-12-12T11:40:47.228Z,97512.93
2018-12-12T11:43:16.577Z,97504.08
2018-12-12T11:45:44.917Z,97502.44
2018-12-12T11:48:13.457Z,97491.34
2018-12-12T11:50:42.071Z,97495.08
2018-12-12T11:53:10.408Z,97489.07
2018-12-12T11:55:38.904Z,97486.48
2018-12-12T11:58:07.225Z,97482.02
2018-12-12T12:00:35.902Z,97489.05
2018-12-12T12:03:04.338Z,97479.05
2018-12-12T12:05:32.850Z,97471.13
2018-12-12T12:08:01.595Z,97463.20
2018-12-12T12:10:29.913Z,97463.48
2018-12-12T12:12:58.345Z,97460.76
2018-12-12T12:15:27.660Z,97467.89
2018-12-12T12:17:56.255Z,97476.58
2018-12-12T12:20:24.581Z,97476.45
2018-12-12T12:22:53.010Z,97487.33
2018-12-12T12:25:21.314Z,97478.63
2018-12-12T12:27:49.689Z,97481.88
2018-12-12T12:30:18.258Z,97479.13
2018-12-12T12:32:46.575Z,97477.33
2018-12-12T12:35:15.101Z,97470.05
2018-12-12T12:37:44.653Z,97467.31
2018-12-12T12:40:12.959Z,97468.20
2018-12-12T12:42:41.277Z,97466.65
2018-12-12T12:45:09.701Z,97464.28
2018-12-12T12:47:38.062Z,97455.30
2018-12-12T12:50:07.142Z,97453.80
2018-12-12T12:52:35.478Z,97450.38
2018-12-12T12:55:04.105Z,97451.77
2018-12-12T12:57:32.497Z,97445.13
2018-12-12T13:00:00.819Z,97456.98
2018-12-12T13:02:29.462Z,97450.25
2018-12-12T13:04:59.465Z,97452.78
2018-12-12T13:07:27.957Z,97452.36
2018-12-12T13:09:56.425Z,97452.57
2018-12-12T13:12:24.738Z,97455.08
2018-12-12T13:14:53.413Z,97449.28
2018-12-12T13:17:21.733Z,97453.80
2018-12-12T13:19:50.016Z,97452.81
2018-12-12T13:22:18.325Z,97446.28
2018-12-12T13:24:46.610Z,97446.59
2018-12-12T13:27:14.909Z,97442.73
2018-12-12T13:29:43.201Z,97436.58
2018-12-12T13:32:11.805Z,97437.67
2018-12-12T13:34:40.218Z,97441.79
2018-12-12T13:37:08.505Z,97430.90
2018-12-12T13:39:37.173Z,97433.92
2018-12-12T13:42:05.681Z,97438.67
2018-12-12T13:44:34.133Z,97433.05
2018-12-12T13:47:02.416Z,97429.27
2018-12-12T13:49:31.097Z,97435.97
2018-12-12T13:51:59.697Z,97427.30
2018-12-12T13:54:27.989Z,97430.64
2018-12-12T13:56:56.554Z,97419.70
2018-12-12T13:59:24.841Z,97424.19
2018-12-12T14:01:53.122Z,97424.91
2018-12-12T14:04:22.910Z,97418.16
2018-12-12T14:06:51.517Z,97422.84
2018-12-12T14:09:19.805Z,97424.97
2018-12-12T14:11:48.077Z,97422.19
2018-12-12T14:14:16.368Z,97426.64
2018-12-12T14:16:44.633Z,97428.69
2018-12-12T14:19:12.937Z,97422.88
2018-12-12T14:21:41.205Z,97422.94
2018-12-12T14:24:09.870Z,97421.18
2018-12-12T14:26:38.141Z,97417.95
2018-12-12T14:29:06.437Z,97418.65
2018-12-12T14:31:34.709Z,97413.12
2018-12-12T14:34:03.397Z,97411.39
2018-12-12T14:36:31.689Z,97406.31
2018-12-12T14:39:00.242Z,97398.31
2018-12-12T14:41:28.522Z,97389.80
2018-12-12T14:43:56.836Z,97397.45
2018-12-12T14:46:25.178Z,97403.73
2018-12-12T14:48:53.657Z,97400.91
2018-12-12T14:51:22.029Z,97397.75
2018-12-12T14:53:50.374Z,97398.62
2018-12-12T14:56:19.084Z,97407.91
2018-12-12T14:58:47.389Z,97415.78
2018-12-12T15:01:15.669Z,97414.12
2018-12-12T15:03:44.040Z,97421.03
2018-12-12T15:06:12.423Z,97424.58
2018-12-12T15:08:40.729Z,97426.63
2018-12-12T15:11:08.998Z,97433.21
2018-12-12T15:13:37.424Z,97433.34
2018-12-12T15:16:05.938Z,97433.55
2018-12-12T15:18:34.917Z,97438.97
2018-12-12T15:21:03.192Z,97434.46
2018-12-12T15:23:31.889Z,97431.39
2018-12-12T15:26:00.201Z,97431.56
2018-12-12T15:28:28.473Z,97426.55
2018-12-12T15:30:56.829Z,97427.70
2018-12-12T15:33:25.286Z,97422.86
2018-12-12T15:35:53.585Z,97422.19
2018-12-12T15:38:21.869Z,97428.74
2018-12-12T15:40:50.173Z,97420.88
2018-12-12T15:43:18.459Z,97419.14
2018-12-12T15:45:46.751Z,97420.67
2018-12-12T15:48:15.042Z,97418.47
2018-12-12T15:50:43.346Z,97415.20
2018-12-12T15:53:12.085Z,97420.81
2018-12-12T15:55:40.377Z,97415.87
2018-12-12T15:58:08.682Z,97420.52
2018-12-12T16:00:37.080Z,97421.47
2018-12-12T16:03:05.575Z,97410.96
2018-12-12T16:05:33.853Z,97409.84
2018-12-12T16:08:02.359Z,97409.36
2018-12-12T16:10:30.678Z,97413.03
2018-12-12T16:12:58.961Z,97416.19
2018-12-12T16:15:27.262Z,97411.78
2018-12-12T16:17:56.257Z,97416.15
2018-12-12T16:20:24.545Z,97416.31
2018-12-12T16:22:52.874Z,97415.66
2018-12-12T16:25:21.234Z,97416.27
2018-12-12T16:27:49.514Z,97416.39
2018-12-12T16:30:17.830Z,97422.23
2018-12-12T16:32:46.101Z,97419.73
2018-12-12T16:35:14.373Z,97420.00
2018-12-12T16:37:42.937Z,97422.55
2018-12-12T16:40:11.717Z,97417.52
2018-12-12T16:42:40.009Z,97419.84
2018-12-12T16:45:08.521Z,97410.84
2018-12-12T16:47:36.814Z,97421.39
2018-12-12T16:50:05.861Z,97415.27
2018-12-12T16:52:34.169Z,97415.91
2018-12-12T16:55:03.265Z,97411.33
2018-12-12T16:57:31.561Z,97409.18
2018-12-12T16:59:59.833Z,97407.38
2018-12-12T17:02:28.233Z,97405.00
2018-12-12T17:05:02.078Z,97400.71
2018-12-12T17:07:26.806Z,97407.70
2018-12-12T17:09:55.065Z,97402.70
2018-12-12T17:12:23.372Z,97409.84
2018-12-12T17:14:51.705Z,97404.27
2018-12-12T17:17:19.993Z,97410.84
2018-12-12T17:19:48.290Z,97415.73
2018-12-12T17:22:16.597Z,97413.28
2018-12-12T17:24:44.878Z,97413.67
2018-12-12T17:27:13.361Z,97409.38
2018-12-12T17:29:41.645Z,97416.81
2018-12-12T17:32:10.381Z,97419.89
2018-12-12T17:34:38.678Z,97418.31
2018-12-12T17:37:06.950Z,97429.20
2018-12-12T17:39:35.241Z,97414.19
2018-12-12T17:42:03.554Z,97418.72
2018-12-12T17:44:31.987Z,97425.77
2018-12-12T17:47:00.267Z,97414.83
2018-12-12T17:49:28.563Z,97413.77
2018-12-12T17:51:56.833Z,97407.09
2018-12-12T17:54:25.129Z,97404.02
2018-12-12T17:56:53.411Z,97404.38
2018-12-12T17:59:21.718Z,97405.27
2018-12-12T18:01:50.406Z,97405.26
2018-12-12T18:04:18.754Z,97405.52
2018-12-12T18:06:47.023Z,97396.58
2018-12-12T18:09:15.305Z,97396.58
2018-12-12T18:11:43.727Z,97389.58
2018-12-12T18:14:12.057Z,97391.65
2018-12-12T18:16:40.397Z,97386.62
2018-12-12T18:19:08.753Z,97389.33
2018-12-12T18:21:38.021Z,97392.60
2018-12-12T18:24:07.233Z,97385.84
2018-12-12T18:26:37.029Z,97388.48
2018-12-12T18:29:06.278Z,97389.08
2018-12-12T18:31:35.085Z,97397.91
2018-12-12T18:34:04.638Z,97395.52
2018-12-12T18:36:33.061Z,97397.16
2018-12-12T18:39:01.654Z,97396.67
2018-12-12T18:41:30.058Z,97392.84
2018-12-12T18:43:58.481Z,97393.27
2018-12-12T18:46:26.865Z,97393.34
2018-12-12T18:48:55.338Z,97400.16
2018-12-12T18:51:24.098Z,97401.92
2018-12-12T18:53:52.402Z,97399.81
2018-12-12T18:56:20.834Z,97400.88
2018-12-12T18:58:49.101Z,97403.39
2018-12-12T19:01:17.393Z,97393.44
2018-12-12T19:03:45.697Z,97396.24
2018-12-12T19:06:14.010Z,97394.77
2018-12-12T19:08:42.298Z,97390.86
2018-12-12T19:11:10.602Z,97397.78
2018-12-12T19:13:38.895Z,97395.40
2018-12-12T19:16:07.185Z,97395.89
2018-12-12T19:18:36.298Z,97395.28
2018-12-12T19:21:04.629Z,97398.02
2018-12-12T19:23:33.021Z,97389.21
2018-12-12T19:26:01.322Z,97390.28
2018-12-12T19:28:29.610Z,97390.39
2018-12-12T19:30:57.906Z,97390.16
2018-12-12T19:33:26.177Z,97391.31
2018-12-12T19:35:56.182Z,97385.91
2018-12-12T19:38:24.452Z,97391.84
2018-12-12T19:40:52.739Z,97388.63
2018-12-12T19:43:21.597Z,97389.38
2018-12-12T19:45:49.905Z,97383.94
2018-12-12T19:48:18.397Z,97393.95
2018-12-12T19:50:46.677Z,97383.36
2018-12-12T19:53:14.986Z,97389.16
2018-12-12T19:55:43.253Z,97384.34
2018-12-12T19:58:11.546Z,97389.41
2018-12-12T20:00:39.828Z,97384.08
2018-12-12T20:03:08.353Z,97384.92
2018-12-12T20:05:41.480Z,97384.91
2018-12-12T20:08:07.373Z,97378.22
2018-12-12T20:10:35.645Z,97374.91
2018-12-12T20:13:04.656Z,97369.67
2018-12-12T20:15:38.402Z,97361.11
2018-12-12T20:18:07.061Z,97358.75
2018-12-12T20:20:36.436Z,97360.73
2018-12-12T20:23:05.366Z,97362.86
2018-12-12T20:25:34.203Z,97358.92
2018-12-12T20:28:02.613Z,97357.28
2018-12-12T20:30:35.282Z,97355.73
2018-12-12T20:33:02.178Z,97359.03
2018-12-12T20:35:30.651Z,97361.29
2018-12-12T20:37:59.469Z,97366.62
2018-12-12T20:40:27.827Z,97367.66
2018-12-12T20:42:57.204Z,97360.84
2018-12-12T20:45:25.846Z,97367.39
2018-12-12T20:47:54.405Z,97370.58
2018-12-12T20:50:22.958Z,97367.28
2018-12-12T20:52:51.663Z,97369.09
2018-12-12T20:55:20.215Z,97366.55
2018-12-12T20:57:50.325Z,97361.95
2018-12-12T21:00:18.619Z,97366.61
2018-12-12T21:02:47.008Z,97362.75
2018-12-12T21:05:15.333Z,97362.38
2018-12-12T21:07:43.619Z,97366.66
2018-12-12T21:10:11.925Z,97361.62
2018-12-12T21:12:40.196Z,97358.82
2018-12-12T21:15:08.805Z,97352.00
2018-12-12T21:17:37.498Z,97344.38
2018-12-12T21:20:07.958Z,97347.19
2018-12-12T21:22:36.237Z,97348.18
2018-12-12T21:25:05.299Z,97350.55
2018-12-12T21:27:33.586Z,97356.84
2018-12-12T21:30:01.885Z,97356.64
2018-12-12T21:32:30.160Z,97351.63
2018-12-12T21:34:58.443Z,97349.04
2018-12-12T21:37:27.770Z,97346.61
2018-12-12T21:39:56.054Z,97340.65
2018-12-12T21:42:24.337Z,97340.21
2018-12-12T21:44:52.637Z,97345.34
2018-12-12T21:47:20.922Z,97343.73
2018-12-12T21:49:49.241Z,97342.61
2018-12-12T21:52:17.865Z,97341.11
2018-12-12T21:54:46.165Z,97337.21
2018-12-12T21:57:14.665Z,97333.22
2018-12-12T21:59:42.969Z,97338.59
2018-12-12T22:02:11.241Z,97335.63
2018-12-12T22:04:39.537Z,97335.95
2018-12-12T22:07:07.805Z,97329.67
2018-12-12T22:09:36.093Z,97334.25
2018-12-12T22:12:04.477Z,97326.64
2018-12-12T22:14:32.761Z,97325.13
2018-12-12T22:17:01.073Z,97320.69
2018-12-12T22:19:29.357Z,97327.68
2018-12-12T22:21:57.670Z,97328.23
2018-12-12T22:24:25.946Z,97324.63
2018-12-12T22:26:54.218Z,97326.70
2018-12-12T22:29:22.505Z,97325.06
2018-12-12T22:31:51.233Z,97326.77
2018-12-12T22:34:19.494Z,97321.04
2018-12-12T22:36:47.789Z,97317.14
2018-12-12T22:39:16.077Z,97313.11
2018-12-12T22:41:44.389Z,97314.91
2018-12-12T22:44:12.683Z,97314.41
2018-12-12T22:46:40.965Z,97311.45
2018-12-12T22:49:09.238Z,97309.66
2018-12-12T22:51:37.633Z,97318.08
2018-12-12T22:54:05.900Z,97310.80
2018-12-12T22:56:34.190Z,97312.50
2018-12-12T22:59:02.501Z,97310.16
2018-12-12T23:01:30.893Z,97315.16
2018-12-12T23:03:59.285Z,97314.50
2018-12-12T23:06:27.593Z,97315.32
2018-12-12T23:08:55.869Z,97313.33
2018-12-12T23:11:25.384Z,97315.44
2018-12-12T23:13:54.133Z,97308.83
2018-12-12T23:16:22.428Z,97312.18
2018-12-12T23:18:50.733Z,97307.80
2018-12-12T23:21:19.005Z,97303.31
2018-12-12T23:23:47.321Z,97309.06
2018-12-12T23:26:15.633Z,97304.58
2018-12-12T23:28:43.933Z,97306.16
2018-12-12T23:31:12.209Z,97301.98
2018-12-12T23:33:40.497Z,97297.23
2018-12-12T23:36:08.754Z,97291.66
2018-12-12T23:38:37.045Z,97289.02
2018-12-12T23:41:05.313Z,97288.34
2018-12-12T23:43:33.653Z,97273.50
2018-12-12T23:46:02.080Z,97269.53
2018-12-12T23:48:30.412Z,97270.54
2018-12-12T23:50:58.737Z,97269.17
2018-12-12T23:53:27.055Z,97268.53
2018-12-12T23:55:55.367Z,97263.25
2018-12-12T23:58:23.694Z,97266.33
